createdAt,value
2023-11-06T00:06:58.852Z,13.89
2023-11-06T00:14:00.574Z,13.76
2023-11-06T00:21:03.934Z,13.78
2023-11-06T00:28:05.561Z,13.52
2023-11-06T00:35:07.548Z,13.49
2023-11-06T00:42:09.234Z,13.65
2023-11-06T00:49:11.636Z,13.64
2023-11-06T00:56:13.601Z,13.55
2023-11-06T01:03:15.223Z,13.69
2023-11-06T01:10:18.605Z,13.68
2023-11-06T01:17:20.224Z,13.81
2023-11-06T01:24:21.830Z,13.84
2023-11-06T01:31:23.423Z,13.99
2023-11-06T01:38:25.085Z,13.72
2023-11-06T01:45:26.712Z,13.75
2023-11-06T01:52:28.376Z,13.88
2023-11-06T01:59:30.021Z,13.95
2023-11-06T02:06:32.531Z,14.10
2023-11-06T02:13:34.112Z,14.18
2023-11-06T02:20:37.373Z,13.91
2023-11-06T02:27:39.887Z,14.25
2023-11-06T02:34:42.810Z,14.29
2023-11-06T02:41:44.554Z,14.26
2023-11-06T02:48:46.257Z,14.09
2023-11-06T02:55:50.764Z,14.35
2023-11-06T03:02:54.594Z,14.08
2023-11-06T03:09:56.384Z,14.11
2023-11-06T03:16:58.000Z,14.08
2023-11-06T03:23:59.622Z,14.33
2023-11-06T03:31:01.191Z,14.19
2023-11-06T03:38:02.824Z,14.29
2023-11-06T03:45:05.772Z,14.26
2023-11-06T03:52:11.992Z,14.14
2023-11-06T03:59:13.690Z,14.46
2023-11-06T04:06:15.359Z,14.33
2023-11-06T04:13:17.080Z,14.14
2023-11-06T04:20:18.724Z,14.22
2023-11-06T04:27:20.843Z,14.13
2023-11-06T04:34:22.418Z,14.28
2023-11-06T04:41:24.047Z,14.16
2023-11-06T04:48:25.710Z,14.00
2023-11-06T04:55:27.502Z,13.98
2023-11-06T05:02:29.207Z,13.84
2023-11-06T05:09:30.938Z,13.93
2023-11-06T05:16:32.536Z,13.95
2023-11-06T05:23:34.763Z,13.96
2023-11-06T05:30:36.366Z,14.01
2023-11-06T05:37:37.982Z,13.68
2023-11-06T05:44:44.445Z,14.01
2023-11-06T05:51:49.861Z,14.00
2023-11-06T05:58:51.464Z,14.05
2023-11-06T06:05:53.121Z,14.17
2023-11-06T06:12:54.823Z,14.00
2023-11-06T06:19:56.416Z,14.14
2023-11-06T06:26:58.474Z,14.23
2023-11-06T06:34:00.263Z,14.34
2023-11-06T06:41:01.936Z,14.36
2023-11-06T06:48:03.604Z,14.56
2023-11-06T06:55:06.416Z,14.34
2023-11-06T07:02:08.094Z,14.40
2023-11-06T07:09:09.760Z,14.56
2023-11-06T07:16:12.775Z,14.52
2023-11-06T07:23:14.468Z,14.37
2023-11-06T07:30:16.486Z,14.64
2023-11-06T07:37:18.302Z,14.65
2023-11-06T07:44:19.938Z,14.88
2023-11-06T07:51:21.729Z,14.95
2023-11-06T07:58:23.338Z,14.81
2023-11-06T08:05:25.042Z,14.81
2023-11-06T08:12:26.664Z,15.00
2023-11-06T08:19:28.265Z,15.15
2023-11-06T08:26:29.946Z,15.22
2023-11-06T08:33:31.647Z,15.28
2023-11-06T08:40:33.283Z,15.42
2023-11-06T08:47:34.996Z,15.60
2023-11-06T08:54:38.853Z,15.72
2023-11-06T09:01:40.520Z,15.74
2023-11-06T09:08:42.098Z,15.83
2023-11-06T09:15:46.710Z,15.73
2023-11-06T09:22:48.362Z,15.66
2023-11-06T09:29:50.041Z,15.73
2023-11-06T09:36:51.950Z,15.70
2023-11-06T09:43:54.826Z,15.81
2023-11-06T09:50:58.219Z,15.87
2023-11-06T09:58:02.368Z,15.96
2023-11-06T10:05:12.949Z,16.05
2023-11-06T10:12:15.962Z,15.98
2023-11-06T10:19:23.524Z,16.38
2023-11-06T10:26:28.984Z,16.37
2023-11-06T10:33:31.010Z,16.65
2023-11-06T10:40:33.211Z,16.47
2023-11-06T10:47:35.094Z,16.38
2023-11-06T10:54:37.895Z,16.39
2023-11-06T11:01:39.504Z,16.32
2023-11-06T11:08:41.162Z,16.44
2023-11-06T11:15:43.966Z,16.49
2023-11-06T11:23:07.888Z,16.67
2023-11-06T11:30:10.875Z,16.93
2023-11-06T11:37:36.500Z,17.15
2023-11-06T11:44:39.221Z,16.96
2023-11-06T11:51:51.107Z,17.08
2023-11-06T11:58:52.679Z,16.95
2023-11-06T12:05:58.153Z,16.82
2023-11-06T12:13:14.534Z,16.89
2023-11-06T12:20:16.242Z,17.01
2023-11-06T12:27:22.084Z,16.79
2023-11-06T12:34:24.054Z,16.80
2023-11-06T12:41:29.795Z,16.68
2023-11-06T12:48:35.339Z,16.67
2023-11-06T12:55:37.973Z,16.98
2023-11-06T13:02:42.366Z,16.88
2023-11-06T13:09:44.020Z,16.96
2023-11-06T13:16:45.708Z,16.96
2023-11-06T13:23:48.060Z,16.70
2023-11-06T13:30:49.713Z,16.83
2023-11-06T13:37:51.964Z,16.91
2023-11-06T13:44:53.674Z,16.76
2023-11-06T13:51:55.803Z,16.81
2023-11-06T13:58:58.831Z,16.87
2023-11-06T14:06:00.492Z,16.87
2023-11-06T14:13:02.253Z,16.95
2023-11-06T14:20:08.714Z,16.83
2023-11-06T14:27:10.359Z,16.61
2023-11-06T14:34:12.213Z,16.58
2023-11-06T14:41:13.858Z,16.84
2023-11-06T14:48:15.660Z,16.89
2023-11-06T14:55:17.597Z,16.84
2023-11-06T15:02:19.281Z,16.82
2023-11-06T15:09:23.517Z,16.78
2023-11-06T15:16:27.680Z,16.85
2023-11-06T15:23:31.249Z,16.67
2023-11-06T15:30:33.466Z,16.67
2023-11-06T15:37:35.638Z,16.64
2023-11-06T15:44:37.479Z,16.62
2023-11-06T15:51:39.112Z,16.60
2023-11-06T15:58:41.403Z,16.61
2023-11-06T16:05:43.053Z,16.47
2023-11-06T16:12:44.673Z,16.29
2023-11-06T16:19:46.336Z,16.34
2023-11-06T16:26:48.060Z,16.33
2023-11-06T16:33:49.956Z,16.33
2023-11-06T16:40:52.734Z,16.43
2023-11-06T16:47:55.358Z,16.23
2023-11-06T16:54:57.200Z,16.19
2023-11-06T17:01:58.777Z,16.02
2023-11-06T17:09:00.511Z,16.01
2023-11-06T17:16:04.641Z,16.06
2023-11-06T17:23:06.441Z,15.97
2023-11-06T17:30:10.314Z,15.77
2023-11-06T17:37:13.905Z,15.85
2023-11-06T17:44:15.536Z,15.65
2023-11-06T17:51:17.522Z,16.00
2023-11-06T17:58:19.097Z,15.86
2023-11-06T18:05:20.684Z,15.92
2023-11-06T18:12:22.948Z,15.63
2023-11-06T18:19:28.246Z,15.72
2023-11-06T18:26:29.945Z,15.69
2023-11-06T18:33:34.883Z,15.73
2023-11-06T18:40:36.578Z,15.58
2023-11-06T18:47:38.325Z,15.59
2023-11-06T18:54:39.989Z,15.41
2023-11-06T19:01:42.138Z,15.49
2023-11-06T19:08:43.794Z,15.28
2023-11-06T19:15:45.423Z,15.28
2023-11-06T19:22:47.060Z,15.14
2023-11-06T19:29:50.743Z,15.19
2023-11-06T19:36:53.081Z,15.04
2023-11-06T19:43:54.683Z,15.02
2023-11-06T19:50:58.915Z,15.04
2023-11-06T19:58:00.981Z,15.06
2023-11-06T20:05:02.612Z,15.04
2023-11-06T20:12:05.298Z,15.05
2023-11-06T20:19:07.229Z,15.11
2023-11-06T20:26:10.575Z,15.01
2023-11-06T20:33:12.447Z,14.96
2023-11-06T20:40:14.281Z,14.97
2023-11-06T20:47:15.976Z,14.67
2023-11-06T20:54:17.730Z,14.64
2023-11-06T21:01:19.294Z,14.62
2023-11-06T21:08:21.742Z,14.29
2023-11-06T21:15:23.635Z,14.35
2023-11-06T21:22:26.001Z,14.39
2023-11-06T21:29:27.663Z,14.34
2023-11-06T21:36:29.295Z,14.01
2023-11-06T21:43:31.013Z,14.09
2023-11-06T21:50:32.690Z,14.06
2023-11-06T21:57:36.680Z,14.17
2023-11-06T22:04:38.424Z,14.03
2023-11-06T22:11:40.614Z,13.88
2023-11-06T22:18:42.402Z,13.85
2023-11-06T22:25:44.134Z,13.84
2023-11-06T22:32:45.750Z,13.67
2023-11-06T22:39:49.657Z,13.85
2023-11-06T22:46:51.296Z,13.78
2023-11-06T22:53:52.921Z,13.77
2023-11-06T23:00:54.526Z,13.77
2023-11-06T23:07:56.161Z,13.97
2023-11-06T23:14:58.970Z,13.92
2023-11-06T23:22:00.647Z,14.20
2023-11-06T23:29:02.885Z,13.98
2023-11-06T23:36:04.900Z,13.98
2023-11-06T23:43:06.537Z,14.20
2023-11-06T23:50:08.136Z,14.08
2023-11-06T23:57:10.095Z,13.92
